Flight Track Log - Related Links

Times and Time Zones

All times are in EDT time to prevent confusion due to time zone crossing. See the RPA3247 flight status page for this flight to view local times or setup timezone preferences in your user account.

Time Position Orientation Groundspeed Altitude Reporting Facility
EDT Latitude Longitude Course Direction KTS MPH feet Rate Location/Type
Tue 08:16:53 PM 38.8833 -77.0500 314° West 187 215 1,300  Level Potomac TRACON
Tue 08:17:53 PM 38.9333 -77.1167 314° West 248 285 3,700 2,333 Climbing Potomac TRACON
Tue 08:18:59 PM 39.0000 -77.1500 339° North 291 335 6,200 2,700 Climbing Potomac TRACON
Tue 08:19:53 PM 39.0000 -77.0833 90° East 245 282 9,100 2,579 Climbing Potomac TRACON
Tue 08:20:53 PM 38.9500 -77.0000 128° Southeast 284 327 11,100 2,100 Climbing Potomac TRACON
Tue 08:21:53 PM 38.8833 -76.9500 150° Southeast 337 388 13,300 2,163 Climbing Potomac TRACON
Tue 08:23:45 PM 38.7358 -76.8558 154° Southeast 339 390 17,300 1,988 Climbing Washington Center
Tue 08:24:45 PM 38.6550 -76.7986 151° Southeast 334 384 19,000 1,140 Climbing Washington Center
Tue 08:25:46 PM 38.5764 -76.7417 150° Southeast 329 379 19,600 1,190 Climbing Washington Center
Tue 08:26:46 PM 38.4850 -76.7164 168° South 324 373 21,400 1,729 Climbing Washington Center
Tue 08:27:44 PM 38.3869 -76.7069 176° South 333 383 23,000 1,322 Climbing Washington Center
Tue 08:28:44 PM 38.2767 -76.6867 172° South 361 415 24,000 1,438 Climbing Washington Center
Tue 08:29:45 PM 38.1747 -76.6719 174° South 367 422 25,900 1,574 Climbing Washington Center
Tue 08:30:46 PM 38.0703 -76.6625 176° South 367 422 27,200 1,140 Climbing Washington Center
Tue 08:31:46 PM 37.9642 -76.6611 179° South 373 429 28,200 992 Climbing Washington Center
Tue 08:32:47 PM 37.8556 -76.6728 185° South 386 444 29,200 1,119 Climbing Washington Center
Tue 08:33:44 PM 37.7408 -76.6842 184° South 399 459 30,400 1,077 Climbing Washington Center
Tue 08:34:44 PM 37.6281 -76.6931 184° South 404 465 31,300 787 Climbing Washington Center
Tue 08:35:46 PM 37.5172 -76.7047 185° South 404 465 32,000 350 Climbing Washington Center
Tue 08:36:44 PM 37.4086 -76.7267 189° South 404 465 32,000  Level Washington Center
Tue 08:37:45 PM 37.2997 -76.7719 198° South 409 471 32,000  Level Washington Center
Tue 08:38:46 PM 37.1950 -76.8172 199° South 414 476 32,000  Level Washington Center
Tue 08:39:46 PM 37.0881 -76.8625 199° South 414 476 32,000 298 Level Washington Center
Tue 08:40:47 PM 36.9814 -76.9050 198° South 409 471 32,600 1,017 Climbing Washington Center
Tue 08:41:44 PM 36.8764 -76.9472 198° South 404 465 34,000 718 Climbing Washington Center
Tue 08:42:44 PM 36.7781 -76.9922 200° South 398 458 34,000  Level Washington Center
Tue 08:43:46 PM 36.6753 -77.0344 198° South 393 452 34,000  Level Washington Center
Tue 08:44:46 PM 36.5725 -77.0739 197° South 388 447 34,000  Level Washington Center
Tue 08:45:46 PM 36.4697 -77.1158 198° South 388 447 34,000  Level Washington Center
Tue 08:46:45 PM 36.3692 -77.1603 200° South 388 447 34,000  Level Washington Center
Tue 08:47:45 PM 36.2664 -77.2019 198° South 388 447 34,000  Level Washington Center
Tue 08:48:46 PM 36.1656 -77.2411 197° South 388 447 34,000  Level Washington Center
Tue 08:49:46 PM 36.0794 -77.2753 198° South 382 440 34,000  Level Washington Center
Tue 08:50:45 PM 35.9767 -77.3169 198° South 382 440 34,000  Level Washington Center
Tue 08:51:45 PM 35.8761 -77.3581 198° South 387 445 34,000  Level Washington Center
Tue 08:52:45 PM 35.7753 -77.3994 198° South 387 445 34,000  Level Washington Center
Tue 08:53:46 PM 35.6744 -77.4381 197° South 387 445 34,000  Level Washington Center
Tue 08:54:44 PM 35.5736 -77.4767 197° South 387 445 34,000  Level Washington Center
Tue 08:55:44 PM 35.4728 -77.5175 198° South 387 445 34,000  Level Washington Center
Tue 08:56:44 PM 35.3764 -77.5586 199° South 382 440 34,000  Level Washington Center
Tue 08:57:45 PM 35.2956 -77.6356 218° Southwest 366 421 34,000  Level Washington Center
Tue 08:58:46 PM 35.2150 -77.7175 220° Southwest 372 428 34,000  Level Washington Center
Tue 08:59:46 PM 35.1364 -77.7992 220° Southwest 377 434 34,000  Level Washington Center
Tue 09:00:44 PM 35.0575 -77.8808 220° Southwest 377 434 34,000  Level Washington Center
Tue 09:01:45 PM 34.9786 -77.9647 221° Southwest 377 434 34,000  Level Washington Center
Tue 09:02:46 PM 34.8978 -78.0433 219° Southwest 377 434 34,000  Level Washington Center
Tue 09:03:46 PM 34.8125 -78.1394 223° Southwest 382 440 34,000  Level Washington Center
Tue 09:04:44 PM 34.7333 -78.2203 220° Southwest 382 440 34,000  Level Washington Center
Tue 09:05:45 PM 34.6522 -78.3036 220° Southwest 382 440 34,000  Level Washington Center
Tue 09:06:50 PM 34.5736 -78.3817 219° Southwest 378 435 34,000  Level Jacksonville Center
Tue 09:07:50 PM 34.5008 -78.4486 217° Southwest 378 435 34,000  Level Jacksonville Center
Tue 09:08:50 PM 34.4186 -78.5408 223° Southwest 373 429 34,000  Level Jacksonville Center
Tue 09:09:50 PM 34.3400 -78.6203 220° Southwest 373 429 34,000  Level Jacksonville Center
Tue 09:10:50 PM 34.2611 -78.6969 219° Southwest 373 429 34,000  Level Jacksonville Center
Tue 09:11:50 PM 34.1844 -78.7733 220° Southwest 373 429 34,000  Level Jacksonville Center
Tue 09:12:50 PM 34.1056 -78.8522 220° Southwest 373 429 34,000  Level Jacksonville Center
Tue 09:14:00 PM 34.0057 -78.9321 214° Southwest  Level FlightAware Approximate
Tue 09:14:50 PM 33.9497 -79.0047 214° Southwest 373 429 34,000  Level Jacksonville Center
Tue 09:15:50 PM 33.8728 -79.0806 219° Southwest 373 429 34,000  Level Jacksonville Center
Tue 09:16:50 PM 33.7936 -79.1592 220° Southwest 373 429 34,000  Level Jacksonville Center
Tue 09:17:50 PM 33.7167 -79.2347 219° Southwest 373 429 34,000  Level Jacksonville Center
Tue 09:18:50 PM 33.6375 -79.3128 219° Southwest 360 414 34,000  Level Jacksonville Center
Tue 09:19:50 PM 33.5603 -79.3883 219° Southwest 360 414 34,000  Level Jacksonville Center
Tue 09:20:50 PM 33.4831 -79.4636 219° Southwest 360 414 34,000  Level Jacksonville Center
Tue 09:21:50 PM 33.4078 -79.5386 220° Southwest 360 414 34,000  Level Jacksonville Center
Tue 09:22:50 PM 33.3325 -79.6133 220° Southwest 360 414 34,000  Level Jacksonville Center
Tue 09:23:50 PM 33.2553 -79.6883 219° Southwest 360 414 34,000  Level Jacksonville Center
Tue 09:24:50 PM 33.1800 -79.7631 220° Southwest 360 414 34,000  Level Jacksonville Center
Tue 09:25:50 PM 33.1022 -79.8353 218° Southwest 360 414 34,000  Level Jacksonville Center
Tue 09:26:50 PM 33.0250 -79.9122 220° Southwest 360 414 34,000  Level Jacksonville Center
Tue 09:27:50 PM 32.9494 -79.9839 219° Southwest 360 414 34,000  Level Jacksonville Center
Tue 09:28:50 PM 32.8800 -80.0506 219° Southwest 360 414 34,000  Level Jacksonville Center
Tue 09:29:50 PM 32.7936 -80.1125 211° Southwest 365 420 34,000  Level Jacksonville Center
Tue 09:30:50 PM 32.7114 -80.1742 212° Southwest 365 420 34,000  Level Jacksonville Center
Tue 09:31:50 PM 32.6272 -80.2361 212° Southwest 360 414 34,000  Level Jacksonville Center
Tue 09:32:50 PM 32.5428 -80.2975 212° Southwest 360 414 34,000  Level Jacksonville Center
Tue 09:33:50 PM 32.4606 -80.3567 211° Southwest 355 409 34,000  Level Jacksonville Center
Tue 09:34:50 PM 32.3653 -80.4011 202° Southwest 355 409 34,000  Level Jacksonville Center
Tue 09:35:50 PM 32.2703 -80.4431 200° South 360 414 34,000  Level Jacksonville Center
Tue 09:36:50 PM 32.1750 -80.4872 201° Southwest 365 420 34,000  Level Jacksonville Center
Tue 09:37:50 PM 32.0714 -80.5342 201° Southwest 365 420 34,000  Level Jacksonville Center
Tue 09:38:50 PM 31.9742 -80.5733 199° South 371 427 34,000  Level Jacksonville Center
Tue 09:39:50 PM 31.8872 -80.6122 201° Southwest 371 427 34,000  Level Jacksonville Center
Tue 09:40:50 PM 31.7836 -80.6586 201° Southwest 366 421 34,000  Level Jacksonville Center
Tue 09:41:50 PM 31.6944 -80.6975 200° South 366 421 34,000  Level Jacksonville Center
Tue 09:42:50 PM 31.5889 -80.7464 202° Southwest 366 421 34,000  Level Jacksonville Center
Tue 09:43:50 PM 31.4933 -80.7850 199° South 371 427 34,000  Level Jacksonville Center
Tue 09:44:50 PM 31.4042 -80.8211 199° South 365 420 34,000  Level Jacksonville Center
Tue 09:45:50 PM 31.2964 -80.8722 202° Southwest 380 437 34,000  Level Jacksonville Center
Tue 09:46:50 PM 31.2011 -80.9156 201° Southwest 380 437 34,000  Level Jacksonville Center
Tue 09:47:50 PM 31.1017 -80.9564 199° South 380 437 34,000  Level Jacksonville Center
Tue 09:48:50 PM 31.0042 -80.9997 201° Southwest 380 437 34,000  Level Jacksonville Center
Tue 09:49:50 PM 30.9064 -81.0378 198° South 375 432 34,000  Level Jacksonville Center
Tue 09:50:50 PM 30.8089 -81.0808 201° Southwest 375 432 34,000  Level Jacksonville Center
Tue 09:51:50 PM 30.7094 -81.1214 199° South 375 432 34,000  Level Jacksonville Center
Tue 09:52:50 PM 30.6094 -81.1450 191° South 375 432 34,000  Level Jacksonville Center
Tue 09:53:50 PM 30.4983 -81.1181 168° South 381 438 34,000  Level Jacksonville Center
Tue 09:54:50 PM 30.3894 -81.0914 168° South 396 456 34,000  Level Jacksonville Center
Tue 09:55:50 PM 30.2783 -81.0622 167° South 402 463 34,000  Level Jacksonville Center
Tue 09:56:50 PM 30.1675 -81.0353 168° South 408 470 34,000  Level Jacksonville Center
Tue 09:57:50 PM 30.0564 -81.0086 168° South 413 475 34,000  Level Jacksonville Center
Tue 09:58:50 PM 29.9453 -80.9822 168° South 413 475 34,000  Level Jacksonville Center
Tue 09:59:50 PM 29.8322 -80.9556 168° South 413 475 34,000  Level Jacksonville Center
Tue 10:00:50 PM 29.7336 -80.9336 169° South 413 475 34,000  Level Jacksonville Center
Tue 10:01:50 PM 29.6247 -80.9025 166° South 413 475 34,000  Level Jacksonville Center
Tue 10:04:12 PM 29.3572 -80.8417 169° South 407 468 34,000  Level Miami Center
Tue 10:05:10 PM 29.2456 -80.8136 168° South 412 474 34,000  Level Miami Center
Tue 10:06:13 PM 29.1378 -80.7861 167° South 412 474 34,000  Level Miami Center
Tue 10:07:10 PM 29.0278 -80.7608 169° South 406 467 34,000  Level Miami Center
Tue 10:08:11 PM 28.9181 -80.7308 167° South 406 467 34,000  Level Miami Center
Tue 10:09:12 PM 28.8103 -80.7058 169° South 406 467 34,000  Level Miami Center
Tue 10:10:12 PM 28.7006 -80.6783 168° South 411 473 34,000  Level Miami Center
Tue 10:11:10 PM 28.6036 -80.6394 161° South 411 473 34,000 -407 Level Miami Center
Tue 10:12:10 PM 28.4817 -80.5906 161° South 422 486 33,200 -1,500 Descending Miami Center
Tue 10:13:10 PM 28.3703 -80.5444 160° South 422 486 31,000 -2,150 Descending Miami Center
Tue 10:14:10 PM 28.2628 -80.5056 162° South 422 486 28,900 -2,150 Descending Miami Center
Tue 10:15:10 PM 28.1636 -80.4647 160° South 416 479 26,700 -2,083 Descending Miami Center
Tue 10:16:11 PM 28.0561 -80.4236 161° South 416 479 24,700 -2,200 Descending Miami Center
Tue 10:17:10 PM 27.9422 -80.3800 161° South 405 466 22,300 -2,067 Descending Miami Center
Tue 10:18:10 PM 27.8494 -80.3419 160° South 400 460 20,600 -1,835 Descending Miami Center
Tue 10:19:11 PM 27.7561 -80.3061 161° South 380 437 18,600 -1,902 Descending Miami Center
Tue 10:20:13 PM 27.6611 -80.2681 160° South 361 415 16,700 -1,916 Descending Miami Center
Tue 10:21:10 PM 27.5681 -80.2325 161° South 361 415 14,800 -2,051 Descending Miami Center
Tue 10:22:10 PM 27.4708 -80.1947 161° South 354 407 12,700 -1,900 Descending Miami Center
Tue 10:23:10 PM 27.3817 -80.1617 162° South 344 396 11,000 -1,350 Descending Miami Center
Tue 10:24:10 PM 27.3011 -80.1289 160° South 338 389 10,000 -793 Descending Miami Center
Tue 10:25:11 PM 27.2328 -80.0992 159° South 303 349 9,400 -1,082 Descending Miami Center
Tue 10:26:12 PM 27.1583 -80.0667 159° South 298 343 7,800 -1,815 Descending Miami Center
Tue 10:27:10 PM 27.0753 -80.0481 169° South 279 321 5,800 -1,765 Descending Miami Center
Tue 10:28:11 PM 27.0044 -80.0344 170° South 273 314 4,300 -1,700 Descending Miami Center
Tue 10:29:10 PM 26.9297 -80.0231 172° South 273 314 2,400 -1,140 Descending Miami Center
Tue 10:30:12 PM 26.8650 -80.0119 171° South 273 314 2,000 -197 Descending Miami Center
Tue 10:31:12 PM 26.7881 -80.0006 172° South 268 308 2,000  Level Miami Center
Tue 10:33:00 PM 26.6832 -80.0956 265° West  Level Estimated
Tue 10:40:00 PM 26.6832 -80.0956 110° East  Level Estimated
Tue 10:41:00 PM 26.6832 -80.0956 110° East  Level Estimated
Tue 10:42:00 PM 26.6832 -80.0956 110° East  Level Estimated
Tue 10:43:00 PM 26.6832 -80.0956 110° East  Level Estimated

Login

Don't have an account? Register now (free) for customized features, flight alerts, and more!